Time;durP1;ratioP1;P1;durP2;ratioP2;P2;SDS_P1;SDS_P2;PMS_P1;PMS_P2;Temp;Humidity;BMP_temperature;BMP_pressure;BME280_temperature;BME280_humidity;BME280_pressure;Samples;Min_cycle;Max_cycle;Signal;HPM_P1;HPM_P2
2021/07/15 00:00:35;;;;;;;53.90;35.77;;;18.80;99.90;;;;;;4366441;32;20198;-62
2021/07/15 00:03:04;;;;;;;54.37;35.97;;;18.80;99.90;;;;;;4368916;32;20189;-63
2021/07/15 00:05:31;;;;;;;50.63;34.30;;;18.80;99.90;;;;;;4362073;32;20195;-63
2021/07/15 00:07:59;;;;;;;54.13;34.93;;;18.80;99.90;;;;;;4366981;32;20183;-62
2021/07/15 00:10:31;;;;;;;57.50;36.40;;;18.70;99.90;;;;;;4374099;32;20160;-63
2021/07/15 00:13:00;;;;;;;63.20;39.03;;;18.70;99.90;;;;;;4373593;32;20186;-63
2021/07/15 00:15:31;;;;;;;55.80;36.40;;;18.80;99.90;;;;;;4375174;32;20239;-63
2021/07/15 00:17:59;;;;;;;63.00;37.23;;;18.70;99.90;;;;;;4375520;32;20216;-62
2021/07/15 00:20:28;;;;;;;53.63;36.23;;;18.70;99.90;;;;;;4375910;32;20630;-62
2021/07/15 00:22:56;;;;;;;56.90;38.30;;;18.70;99.90;;;;;;4372669;32;20167;-63
2021/07/15 00:25:23;;;;;;;53.23;35.67;;;18.70;99.90;;;;;;4371372;32;20185;-62
2021/07/15 00:27:50;;;;;;;53.67;36.27;;;18.70;99.90;;;;;;4369372;32;20605;-62
2021/07/15 00:30:18;;;;;;;48.40;32.80;;;18.70;99.90;;;;;;4373844;32;20182;-63
2021/07/15 00:32:46;;;;;;;56.97;35.63;;;18.70;99.90;;;;;;4368449;32;20212;-63
2021/07/15 00:35:14;;;;;;;58.23;35.87;;;18.70;99.90;;;;;;4369880;32;20191;-63
2021/07/15 00:37:41;;;;;;;44.90;33.07;;;18.70;99.90;;;;;;4375998;32;20165;-62
2021/07/15 00:40:10;;;;;;;46.87;33.50;;;18.70;99.90;;;;;;4375209;32;20172;-63
2021/07/15 00:42:37;;;;;;;58.00;37.13;;;18.70;99.90;;;;;;4373036;32;20524;-62
2021/07/15 00:45:06;;;;;;;51.97;35.47;;;18.70;99.90;;;;;;4370427;32;20164;-62
2021/07/15 00:47:34;;;;;;;57.23;36.47;;;18.70;99.90;;;;;;4374565;32;20219;-62
2021/07/15 00:50:04;;;;;;;62.30;37.83;;;18.60;99.90;;;;;;4363584;32;20207;-62
2021/07/15 00:52:32;;;;;;;49.93;34.07;;;18.70;99.90;;;;;;4371889;32;20183;-62
2021/07/15 00:54:59;;;;;;;47.30;31.47;;;18.70;99.90;;;;;;4363799;32;20216;-63
2021/07/15 00:57:25;;;;;;;43.97;30.37;;;18.70;99.90;;;;;;4366916;32;20611;-61
2021/07/15 00:59:53;;;;;;;48.70;30.50;;;18.70;99.90;;;;;;4373071;32;20172;-60
2021/07/15 01:02:20;;;;;;;51.57;33.47;;;18.70;99.90;;;;;;4372270;32;20274;-62
2021/07/15 01:04:48;;;;;;;49.03;31.70;;;18.70;99.90;;;;;;4374927;32;20179;-62
2021/07/15 01:07:15;;;;;;;47.00;32.07;;;18.70;99.90;;;;;;4369428;32;20180;-61
2021/07/15 01:09:42;;;;;;;46.13;32.97;;;18.70;99.90;;;;;;4368546;32;20239;-61
2021/07/15 01:12:20;;;;;;;43.70;31.07;;;18.60;99.90;;;;;;4375628;32;20514;-61
2021/07/15 01:15:00;;;;;;;46.03;32.67;;;18.60;99.90;;;;;;4369210;32;20172;-61
2021/07/15 01:17:34;;;;;;;42.30;31.03;;;18.60;99.90;;;;;;4371489;32;20216;-62
2021/07/15 01:20:33;;;;;;;46.03;31.93;;;18.60;99.90;;;;;;4365710;32;20610;-62
2021/07/15 01:23:14;;;;;;;53.93;33.63;;;18.60;99.90;;;;;;4371040;32;20156;-61
2021/07/15 01:26:06;;;;;;;46.33;30.53;;;18.60;99.90;;;;;;4372645;32;20156;-61
2021/07/15 01:28:57;;;;;;;41.73;28.03;;;18.60;99.90;;;;;;4373116;32;20190;-60
2021/07/15 01:31:25;;;;;;;48.23;31.07;;;18.60;99.90;;;;;;4375833;32;20267;-61
2021/07/15 01:33:53;;;;;;;45.87;29.77;;;18.60;99.90;;;;;;4373888;32;20167;-61
2021/07/15 01:36:22;;;;;;;41.50;29.27;;;18.60;99.90;;;;;;4371901;32;20184;-60
2021/07/15 01:38:53;;;;;;;43.87;28.70;;;18.60;99.90;;;;;;4370213;32;20165;-61
2021/07/15 01:41:24;;;;;;;52.47;30.73;;;18.60;99.90;;;;;;4369387;32;20160;-61
2021/07/15 01:43:54;;;;;;;44.90;27.93;;;18.60;99.90;;;;;;4372342;32;20176;-60
2021/07/15 01:46:21;;;;;;;46.20;29.23;;;18.60;99.90;;;;;;4374766;32;20198;-60
2021/07/15 01:48:50;;;;;;;44.87;30.20;;;18.60;99.90;;;;;;4375171;32;20207;-61
2021/07/15 01:51:18;;;;;;;46.33;30.80;;;18.60;99.90;;;;;;4371222;32;20200;-61
2021/07/15 01:53:45;;;;;;;43.27;28.83;;;18.50;99.90;;;;;;4372530;32;20207;-60
2021/07/15 01:56:13;;;;;;;46.07;28.83;;;18.50;99.90;;;;;;4375680;32;20187;-61
2021/07/15 01:58:42;;;;;;;44.17;29.10;;;18.50;99.90;;;;;;4367607;32;20161;-61
2021/07/15 02:01:10;;;;;;;49.97;29.70;;;18.50;99.90;;;;;;4367183;32;20223;-61
2021/07/15 02:03:41;;;;;;;44.60;28.00;;;18.50;99.90;;;;;;4373102;32;20267;-61
2021/07/15 02:06:10;;;;;;;45.10;28.20;;;18.40;99.90;;;;;;4375356;32;20172;-61
2021/07/15 02:08:38;;;;;;;48.40;28.60;;;18.50;99.90;;;;;;4372667;32;20496;-61
2021/07/15 02:11:07;;;;;;;51.63;30.47;;;18.50;99.90;;;;;;4364224;32;20176;-61
2021/07/15 02:13:34;;;;;;;52.87;31.67;;;18.30;99.90;;;;;;4370867;32;20191;-61
2021/07/15 02:16:02;;;;;;;44.73;28.70;;;18.40;99.90;;;;;;4373768;32;20152;-61
2021/07/15 02:18:31;;;;;;;45.57;28.40;;;18.40;99.90;;;;;;4369824;32;20198;-61
2021/07/15 02:21:00;;;;;;;54.20;31.10;;;18.40;99.90;;;;;;4374815;32;20227;-61
2021/07/15 02:23:29;;;;;;;50.43;30.40;;;18.40;99.90;;;;;;4373060;32;20216;-61
2021/07/15 02:25:58;;;;;;;46.03;31.43;;;18.40;99.90;;;;;;4373324;32;20182;-62
2021/07/15 02:28:29;;;;;;;45.00;28.80;;;18.30;99.90;;;;;;4366644;32;20179;-61
2021/07/15 02:31:04;;;;;;;49.70;30.07;;;18.30;99.90;;;;;;4378025;32;20176;-60
2021/07/15 02:33:33;;;;;;;53.07;30.40;;;18.30;99.90;;;;;;4373814;32;20178;-60
2021/07/15 02:36:03;;;;;;;49.50;30.77;;;18.40;99.90;;;;;;4370875;32;20171;-61
2021/07/15 02:38:34;;;;;;;49.00;31.67;;;18.40;99.90;;;;;;4377398;32;20176;-61
2021/07/15 02:41:01;;;;;;;44.93;28.73;;;18.30;99.90;;;;;;4375914;32;20224;-61
2021/07/15 02:43:28;;;;;;;47.20;30.23;;;18.30;99.90;;;;;;4377457;32;20179;-61
2021/07/15 02:45:55;;;;;;;42.20;28.10;;;18.40;99.90;;;;;;4375072;32;20278;-61
2021/07/15 02:48:22;;;;;;;45.10;28.33;;;18.30;99.90;;;;;;4378636;32;20227;-62
2021/07/15 02:50:49;;;;;;;43.13;26.77;;;18.40;99.90;;;;;;4371262;32;20618;-61
2021/07/15 02:53:16;;;;;;;47.57;27.30;;;18.40;99.90;;;;;;4370210;32;20191;-61
2021/07/15 02:55:50;;;;;;;43.13;27.90;;;18.30;99.90;;;;;;4374608;32;20220;-61
2021/07/15 02:58:26;;;;;;;37.37;24.53;;;18.30;99.90;;;;;;4375646;32;20163;-62
2021/07/15 03:01:00;;;;;;;39.77;27.43;;;18.40;99.90;;;;;;4375820;32;20202;-60
2021/07/15 03:03:38;;;;;;;41.47;27.27;;;18.40;99.90;;;;;;4376662;32;20220;-61
2021/07/15 03:06:11;;;;;;;39.50;24.97;;;18.30;99.90;;;;;;4368885;32;20624;-62
2021/07/15 03:08:47;;;;;;;43.97;27.50;;;18.30;99.90;;;;;;4378212;32;20220;-61
2021/07/15 03:11:15;;;;;;;38.57;26.40;;;18.30;99.90;;;;;;4373177;32;20212;-62
2021/07/15 03:13:45;;;;;;;43.03;27.50;;;18.20;99.90;;;;;;4374804;32;20300;-61
2021/07/15 03:16:13;;;;;;;39.30;25.33;;;18.30;99.90;;;;;;4375685;32;20176;-62
2021/07/15 03:18:41;;;;;;;42.40;27.73;;;18.30;99.90;;;;;;4375317;32;20195;-62
2021/07/15 03:21:08;;;;;;;42.23;26.17;;;18.30;99.90;;;;;;4372098;32;20217;-63
2021/07/15 03:23:38;;;;;;;44.67;23.70;;;18.20;99.90;;;;;;4376291;32;20247;-62
2021/07/15 03:26:08;;;;;;;46.63;27.10;;;18.20;99.90;;;;;;4374824;32;20651;-62
2021/07/15 03:28:40;;;;;;;36.10;23.90;;;18.20;99.90;;;;;;4368637;32;20269;-62
2021/07/15 03:31:08;;;;;;;36.63;22.97;;;18.20;99.90;;;;;;4376283;32;20177;-62
2021/07/15 03:33:38;;;;;;;34.20;23.23;;;18.20;99.90;;;;;;4376063;32;20595;-62
2021/07/15 03:36:05;;;;;;;36.83;24.17;;;18.20;99.90;;;;;;4373842;32;20213;-61
2021/07/15 03:38:33;;;;;;;41.83;26.40;;;18.30;99.90;;;;;;4367361;32;20164;-61
2021/07/15 03:41:01;;;;;;;38.70;25.10;;;18.20;99.90;;;;;;4371531;32;20580;-61
2021/07/15 03:43:29;;;;;;;42.00;24.23;;;18.20;99.90;;;;;;4372792;32;20227;-62
2021/07/15 03:45:57;;;;;;;35.03;22.33;;;18.20;99.90;;;;;;4375711;32;20231;-62
2021/07/15 03:48:28;;;;;;;34.30;23.53;;;18.20;99.90;;;;;;4369050;32;20208;-62
2021/07/15 03:50:58;;;;;;;37.27;23.83;;;18.20;99.90;;;;;;4377922;32;20219;-62
2021/07/15 03:53:30;;;;;;;39.30;22.60;;;18.20;99.90;;;;;;4368415;32;20247;-62
2021/07/15 03:56:02;;;;;;;34.07;22.00;;;18.30;99.90;;;;;;4375014;32;20220;-61
2021/07/15 03:58:31;;;;;;;37.67;22.60;;;18.30;99.90;;;;;;4369991;32;20240;-61
2021/07/15 04:01:02;;;;;;;40.50;23.60;;;18.30;99.90;;;;;;4371244;32;20495;-61
2021/07/15 04:03:31;;;;;;;45.90;26.47;;;18.30;99.90;;;;;;4372952;32;20216;-61
2021/07/15 04:06:02;;;;;;;44.03;24.83;;;18.30;99.90;;;;;;4377570;32;20164;-61
2021/07/15 04:08:30;;;;;;;35.93;22.93;;;18.30;99.90;;;;;;4373878;32;20168;-61
2021/07/15 04:11:02;;;;;;;51.33;28.40;;;18.30;99.90;;;;;;4375245;32;20164;-61
2021/07/15 04:13:29;;;;;;;54.07;28.17;;;18.20;99.90;;;;;;4374812;32;20164;-60
2021/07/15 04:16:23;;;;;;;44.03;25.57;;;18.20;99.90;;;;;;4366817;32;20216;-61
2021/07/15 04:18:57;;;;;;;52.23;27.77;;;18.20;99.90;;;;;;4326301;33;20193;-61
2021/07/15 04:21:26;;;;;;;44.40;27.10;;;18.20;99.90;;;;;;4329182;33;20230;-61
2021/07/15 04:23:56;;;;;;;40.07;24.53;;;18.30;99.90;;;;;;4328715;33;20192;-61
2021/07/15 04:26:24;;;;;;;44.27;26.67;;;18.30;99.90;;;;;;4318796;33;21058;-61
2021/07/15 04:28:52;;;;;;;46.07;26.13;;;18.30;99.90;;;;;;4325355;33;20244;-61
2021/07/15 04:31:35;;;;;;;50.30;28.73;;;18.30;99.90;;;;;;4320843;33;20166;-61
2021/07/15 04:34:02;;;;;;;56.10;31.90;;;18.20;99.90;;;;;;4314732;33;20217;-63
2021/07/15 04:36:30;;;;;;;52.70;28.17;;;18.10;99.90;;;;;;4319493;33;20188;-62
2021/07/15 04:38:57;;;;;;;46.27;25.97;;;18.10;99.90;;;;;;4322337;33;20170;-61
2021/07/15 04:41:28;;;;;;;44.13;26.73;;;18.10;99.90;;;;;;4322648;33;20180;-62
2021/07/15 04:43:58;;;;;;;53.80;29.17;;;18.10;99.90;;;;;;4321518;33;20201;-62
2021/07/15 04:46:27;;;;;;;36.77;23.00;;;18.20;99.90;;;;;;4329908;33;20181;-64
2021/07/15 04:48:54;;;;;;;44.30;23.53;;;18.10;99.90;;;;;;4329427;33;20205;-62
2021/07/15 04:51:23;;;;;;;31.50;21.27;;;18.10;99.90;;;;;;4316228;33;20673;-63
2021/07/15 04:53:58;;;;;;;40.33;23.33;;;18.10;99.90;;;;;;4316495;33;20208;-66
2021/07/15 04:56:26;;;;;;;40.17;21.83;;;18.10;99.90;;;;;;4353875;32;20528;-64
2021/07/15 04:58:54;;;;;;;37.63;21.67;;;18.10;99.90;;;;;;4367660;32;20180;-65
2021/07/15 05:01:21;;;;;;;30.60;19.23;;;18.10;99.90;;;;;;4369826;32;20239;-65
2021/07/15 05:03:49;;;;;;;29.63;17.87;;;18.10;99.90;;;;;;4376167;32;20212;-65
2021/07/15 05:06:18;;;;;;;30.43;18.07;;;18.10;99.90;;;;;;4373408;32;20196;-65
2021/07/15 05:08:45;;;;;;;35.77;20.67;;;18.00;99.90;;;;;;4371486;32;20247;-66
2021/07/15 05:11:12;;;;;;;26.13;17.57;;;18.00;99.90;;;;;;4372891;32;20216;-67
2021/07/15 05:13:39;;;;;;;33.17;16.73;;;18.00;99.90;;;;;;4364461;32;20187;-67
2021/07/15 05:16:07;;;;;;;27.30;16.63;;;18.00;99.90;;;;;;4376359;32;20179;-67
2021/07/15 05:18:35;;;;;;;43.10;21.97;;;18.00;99.90;;;;;;4369923;32;20172;-67
2021/07/15 05:21:07;;;;;;;35.33;22.60;;;17.90;99.90;;;;;;4361573;32;20175;-66
2021/07/15 05:23:34;;;;;;;46.90;26.40;;;17.80;99.90;;;;;;4375539;32;20156;-67
2021/07/15 05:26:01;;;;;;;49.80;27.57;;;17.80;99.90;;;;;;4361000;32;20216;-69
2021/07/15 05:28:28;;;;;;;61.33;31.30;;;17.90;99.90;;;;;;4374994;32;20183;-65
2021/07/15 05:30:55;;;;;;;57.77;29.67;;;17.80;99.90;;;;;;4360907;33;20213;-67
2021/07/15 05:33:22;;;;;;;58.70;31.37;;;17.80;99.90;;;;;;4376748;32;20164;-66
2021/07/15 05:35:51;;;;;;;53.30;29.33;;;17.80;99.90;;;;;;4371954;32;20176;-67
2021/07/15 05:38:19;;;;;;;64.90;31.87;;;17.90;99.90;;;;;;4370784;32;20184;-65
2021/07/15 05:40:48;;;;;;;80.03;33.40;;;17.80;99.90;;;;;;4374515;32;20222;-66
2021/07/15 05:43:15;;;;;;;46.60;28.90;;;17.80;99.90;;;;;;4374809;32;20186;-66
2021/07/15 05:45:42;;;;;;;79.63;33.80;;;17.80;99.90;;;;;;4371519;32;20528;-64
2021/07/15 05:48:09;;;;;;;80.20;29.60;;;17.70;99.90;;;;;;4375558;32;20215;-67
2021/07/15 05:50:36;;;;;;;50.03;26.10;;;17.70;99.90;;;;;;4373373;32;20188;-65
2021/07/15 05:53:04;;;;;;;42.07;23.77;;;17.70;99.90;;;;;;4372393;32;20255;-69
2021/07/15 05:55:32;;;;;;;46.73;27.30;;;17.70;99.90;;;;;;4373922;32;20469;-62
2021/07/15 05:57:59;;;;;;;54.77;28.73;;;17.70;99.90;;;;;;4377196;32;20259;-63
2021/07/15 06:00:25;;;;;;;64.00;31.93;;;17.70;99.90;;;;;;4373917;32;20152;-65
2021/07/15 06:02:54;;;;;;;66.30;32.53;;;17.70;99.90;;;;;;4378031;32;20159;-66
2021/07/15 06:05:21;;;;;;;56.47;31.13;;;17.70;99.90;;;;;;4378371;32;20164;-65
2021/07/15 06:07:48;;;;;;;73.30;35.53;;;17.70;99.90;;;;;;4374266;32;20636;-65
2021/07/15 06:10:15;;;;;;;61.57;29.67;;;17.70;99.90;;;;;;4365537;32;20244;-67
2021/07/15 06:12:43;;;;;;;55.37;26.77;;;17.70;99.90;;;;;;4373065;32;20160;-63
2021/07/15 06:15:11;;;;;;;45.20;26.00;;;17.70;99.90;;;;;;4375193;32;20183;-67
2021/07/15 06:17:37;;;;;;;68.00;31.07;;;17.70;99.90;;;;;;4363818;32;20207;-68
2021/07/15 06:20:05;;;;;;;62.00;31.10;;;17.70;99.90;;;;;;4375904;32;20182;-65
2021/07/15 06:22:32;;;;;;;53.80;27.80;;;17.70;99.90;;;;;;4372849;32;20161;-67
2021/07/15 06:24:59;;;;;;;57.93;29.67;;;17.60;99.90;;;;;;4378265;32;20517;-65
2021/07/15 06:27:26;;;;;;;56.50;29.33;;;17.60;99.90;;;;;;4376573;32;20174;-68
2021/07/15 06:29:54;;;;;;;61.50;28.93;;;17.70;99.90;;;;;;4377675;32;20227;-66
2021/07/15 06:32:21;;;;;;;61.17;27.43;;;17.60;99.90;;;;;;4388500;32;20339;-66
2021/07/15 06:34:47;;;;;;;49.73;26.00;;;17.60;99.90;;;;;;4377458;32;20243;-67
2021/07/15 06:37:15;;;;;;;58.57;28.43;;;17.60;99.90;;;;;;4377340;32;20552;-66
2021/07/15 06:39:42;;;;;;;65.63;29.10;;;17.70;99.90;;;;;;4373799;32;20254;-64
2021/07/15 06:42:09;;;;;;;61.13;29.23;;;17.70;99.90;;;;;;4372162;32;20223;-65
2021/07/15 06:44:36;;;;;;;64.37;29.50;;;17.60;99.90;;;;;;4384999;32;20153;-67
2021/07/15 06:47:07;;;;;;;61.10;28.73;;;17.60;99.90;;;;;;4384854;32;20165;-67
2021/07/15 06:49:33;;;;;;;59.90;29.20;;;17.60;99.90;;;;;;4379751;32;20168;-66
2021/07/15 06:52:00;;;;;;;54.57;27.47;;;17.60;99.90;;;;;;4378849;32;20168;-67
2021/07/15 06:54:27;;;;;;;56.33;27.67;;;17.60;99.90;;;;;;4378337;32;20179;-65
2021/07/15 06:56:54;;;;;;;49.83;27.20;;;17.60;99.90;;;;;;4376168;32;20522;-65
2021/07/15 06:59:21;;;;;;;52.03;25.50;;;17.60;99.90;;;;;;4377950;32;20231;-65
2021/07/15 07:01:47;;;;;;;70.37;27.07;;;17.70;99.90;;;;;;4375618;32;20179;-65
2021/07/15 07:04:16;;;;;;;47.83;24.57;;;17.60;99.90;;;;;;4376269;32;20195;-68
2021/07/15 07:06:42;;;;;;;48.77;23.07;;;17.70;99.90;;;;;;4378781;32;20164;-67
2021/07/15 07:09:09;;;;;;;45.67;23.90;;;17.70;99.90;;;;;;4380562;32;20184;-68
2021/07/15 07:11:36;;;;;;;38.60;23.27;;;17.60;99.90;;;;;;4377536;32;20164;-67
2021/07/15 07:14:03;;;;;;;54.80;23.80;;;17.70;99.90;;;;;;4377577;32;20171;-68
2021/07/15 07:16:30;;;;;;;55.50;25.73;;;17.60;99.90;;;;;;4374560;32;20179;-68
2021/07/15 07:18:57;;;;;;;62.13;26.83;;;17.60;99.90;;;;;;4374755;32;20164;-66
2021/07/15 07:21:25;;;;;;;46.77;25.07;;;17.50;99.90;;;;;;4377141;32;20190;-68
2021/07/15 07:23:52;;;;;;;48.73;27.10;;;17.50;99.90;;;;;;4381210;32;20264;-66
2021/07/15 07:26:19;;;;;;;43.30;26.33;;;17.60;99.90;;;;;;4381388;32;20164;-65
2021/07/15 07:28:46;;;;;;;59.90;26.27;;;17.60;99.90;;;;;;4380310;32;20227;-64
2021/07/15 07:31:13;;;;;;;54.57;27.53;;;17.60;99.90;;;;;;4376895;32;20164;-68
2021/07/15 07:33:40;;;;;;;57.67;27.83;;;17.50;99.90;;;;;;4375707;32;20160;-65
2021/07/15 07:36:08;;;;;;;53.17;26.60;;;17.50;99.90;;;;;;4376960;32;20632;-68
2021/07/15 07:38:36;;;;;;;55.00;26.27;;;17.50;99.90;;;;;;4374842;32;20168;-65
2021/07/15 07:41:03;;;;;;;55.30;27.03;;;17.50;99.90;;;;;;4379800;32;20198;-68
2021/07/15 07:43:30;;;;;;;57.70;27.67;;;17.50;99.90;;;;;;4374471;32;20169;-66
2021/07/15 07:45:57;;;;;;;56.90;28.77;;;17.50;99.90;;;;;;4377561;32;20186;-65
2021/07/15 07:48:24;;;;;;;51.30;27.67;;;17.50;99.90;;;;;;4372527;32;20211;-66
2021/07/15 07:50:53;;;;;;;56.33;26.77;;;17.60;99.90;;;;;;4375791;32;20591;-65
2021/07/15 07:53:19;;;;;;;52.57;26.57;;;17.60;99.90;;;;;;4375657;32;20161;-66
2021/07/15 07:55:48;;;;;;;50.00;25.97;;;17.60;99.90;;;;;;4377349;32;20634;-67
2021/07/15 07:58:14;;;;;;;42.67;24.03;;;17.60;99.90;;;;;;4373641;32;20173;-66
2021/07/15 08:00:41;;;;;;;50.23;25.80;;;17.60;99.90;;;;;;4369191;32;20253;-68
2021/07/15 08:03:08;;;;;;;44.47;24.53;;;17.60;99.90;;;;;;4365256;32;20210;-67
2021/07/15 08:05:38;;;;;;;40.57;23.37;;;17.70;99.90;;;;;;4365680;32;20206;-68
2021/07/15 08:08:06;;;;;;;42.63;22.77;;;17.70;99.90;;;;;;4367055;32;20278;-67
2021/07/15 08:10:32;;;;;;;46.90;24.07;;;17.70;99.90;;;;;;4366133;32;20160;-67
2021/07/15 08:13:00;;;;;;;41.53;22.17;;;17.80;99.90;;;;;;4366785;32;20177;-65
2021/07/15 08:15:27;;;;;;;53.87;25.40;;;17.80;99.90;;;;;;4360007;32;20172;-65
2021/07/15 08:17:54;;;;;;;47.17;24.87;;;17.80;99.90;;;;;;4364376;32;20188;-66
2021/07/15 08:20:21;;;;;;;48.03;22.73;;;17.80;99.90;;;;;;4369987;32;20175;-66
2021/07/15 08:22:48;;;;;;;41.23;23.33;;;17.90;99.90;;;;;;4366818;32;20254;-67
2021/07/15 08:25:19;;;;;;;44.77;24.13;;;17.80;99.90;;;;;;4361438;32;20157;-67
2021/07/15 08:27:46;;;;;;;42.13;22.43;;;17.70;99.90;;;;;;4368874;32;20182;-66
2021/07/15 08:30:17;;;;;;;51.03;24.00;;;17.80;99.90;;;;;;4371877;32;20210;-66
2021/07/15 08:32:44;;;;;;;36.10;19.57;;;17.90;99.90;;;;;;4365164;32;20169;-66
2021/07/15 08:35:11;;;;;;;43.03;19.57;;;18.10;99.90;;;;;;4368062;32;20180;-66
2021/07/15 08:37:38;;;;;;;35.60;17.97;;;18.20;99.90;;;;;;4368286;32;20176;-67
2021/07/15 08:40:07;;;;;;;33.83;19.07;;;18.30;99.90;;;;;;4366933;32;20168;-66
2021/07/15 08:42:34;;;;;;;30.30;17.60;;;18.20;99.90;;;;;;4367205;32;20180;-64
2021/07/15 08:45:04;;;;;;;25.20;16.03;;;18.30;99.90;;;;;;4363594;32;20258;-65
2021/07/15 08:47:34;;;;;;;27.17;15.60;;;18.30;99.90;;;;;;4370186;32;20161;-65
2021/07/15 08:50:01;;;;;;;28.70;18.13;;;18.40;99.90;;;;;;4366819;32;20156;-65
2021/07/15 08:52:29;;;;;;;31.33;17.30;;;18.40;99.90;;;;;;4368244;32;20176;-65
2021/07/15 08:55:00;;;;;;;28.57;15.87;;;18.40;99.90;;;;;;4364272;32;20165;-66
2021/07/15 08:57:26;;;;;;;24.67;14.00;;;18.40;99.90;;;;;;4365823;32;20161;-65
2021/07/15 08:59:55;;;;;;;25.53;15.40;;;18.30;99.90;;;;;;4372047;32;20218;-65
2021/07/15 09:02:23;;;;;;;20.13;12.97;;;18.30;99.90;;;;;;4373230;32;20179;-66
2021/07/15 09:04:52;;;;;;;24.60;13.37;;;18.40;99.90;;;;;;4371518;32;20160;-66
2021/07/15 09:07:20;;;;;;;24.00;14.63;;;18.40;99.90;;;;;;4375118;32;20222;-67
2021/07/15 09:09:48;;;;;;;30.37;16.70;;;18.40;99.90;;;;;;4375008;32;20194;-66
2021/07/15 09:12:16;;;;;;;27.97;16.57;;;18.40;99.90;;;;;;4375076;32;20160;-65
2021/07/15 09:14:47;;;;;;;29.73;14.67;;;18.40;99.90;;;;;;4372204;32;20164;-65
2021/07/15 09:17:15;;;;;;;26.43;16.40;;;18.40;99.90;;;;;;4374296;32;20160;-66
2021/07/15 09:19:43;;;;;;;28.47;16.43;;;18.40;99.90;;;;;;4374599;32;20218;-66
2021/07/15 09:22:13;;;;;;;33.47;17.70;;;18.30;99.90;;;;;;4373266;32;20179;-66
2021/07/15 09:24:42;;;;;;;27.63;15.93;;;18.30;99.90;;;;;;4373306;32;20184;-67
2021/07/15 09:27:11;;;;;;;30.10;14.80;;;18.30;99.90;;;;;;4375204;32;20741;-65
2021/07/15 09:29:38;;;;;;;28.23;14.73;;;18.20;99.90;;;;;;4372790;32;20212;-67
2021/07/15 09:32:06;;;;;;;40.87;17.50;;;18.10;99.90;;;;;;4373581;32;20145;-67
2021/07/15 09:34:35;;;;;;;41.17;19.17;;;18.00;99.90;;;;;;4374130;32;20243;-66
2021/07/15 09:37:12;;;;;;;30.87;17.57;;;18.10;99.90;;;;;;4375159;32;20563;-65
2021/07/15 09:39:45;;;;;;;37.87;19.20;;;18.20;99.90;;;;;;4374015;32;20178;-63
2021/07/15 09:42:18;;;;;;;29.67;18.07;;;18.30;99.90;;;;;;4372909;32;20160;-66
2021/07/15 09:44:47;;;;;;;33.80;16.17;;;18.30;99.90;;;;;;4372923;32;20164;-67
2021/07/15 09:47:36;;;;;;;28.67;17.47;;;18.30;99.90;;;;;;4373884;32;20228;-66
2021/07/15 09:50:25;;;;;;;28.67;15.00;;;18.40;99.90;;;;;;4370919;32;20982;-67
2021/07/15 09:53:15;;;;;;;22.30;14.30;;;18.40;99.90;;;;;;4373430;32;20160;-66
2021/07/15 09:55:42;;;;;;;18.77;13.33;;;18.40;99.90;;;;;;4373496;32;20156;-65
2021/07/15 09:58:11;;;;;;;22.67;12.90;;;18.40;99.90;;;;;;4371628;32;20211;-64
2021/07/15 10:00:39;;;;;;;23.83;14.40;;;18.30;99.90;;;;;;4371155;32;20191;-67
2021/07/15 10:03:08;;;;;;;24.50;13.50;;;18.40;99.90;;;;;;4372206;32;20161;-65
2021/07/15 10:05:37;;;;;;;31.40;16.03;;;18.30;99.90;;;;;;4370696;32;20165;-66
2021/07/15 10:08:07;;;;;;;29.90;14.73;;;18.20;99.90;;;;;;4373256;32;20183;-65
2021/07/15 10:10:35;;;;;;;27.40;15.70;;;18.20;99.90;;;;;;4372419;32;20195;-65
2021/07/15 10:13:15;;;;;;;26.17;14.17;;;18.20;99.90;;;;;;4374052;32;20246;-65
2021/07/15 10:15:43;;;;;;;24.70;14.20;;;18.20;99.90;;;;;;4372973;32;20228;-65
2021/07/15 10:18:10;;;;;;;19.57;14.53;;;18.20;99.90;;;;;;4374818;32;20611;-64
2021/07/15 10:20:37;;;;;;;41.07;15.80;;;18.30;99.90;;;;;;4374856;32;20202;-66
2021/07/15 10:23:06;;;;;;;25.50;13.40;;;18.30;99.90;;;;;;4374973;32;20183;-66
2021/07/15 10:25:33;;;;;;;20.27;12.63;;;18.50;99.90;;;;;;4362387;32;20157;-65
2021/07/15 10:28:00;;;;;;;21.97;11.73;;;18.60;99.90;;;;;;4369597;32;20161;-67
2021/07/15 10:30:29;;;;;;;17.87;11.63;;;18.80;99.90;;;;;;4370580;32;20176;-65
2021/07/15 10:32:56;;;;;;;21.07;11.33;;;18.90;99.90;;;;;;4373597;32;20195;-66
2021/07/15 10:35:25;;;;;;;16.40;11.13;;;19.00;99.90;;;;;;4374697;32;20164;-65
2021/07/15 10:37:58;;;;;;;22.00;11.67;;;18.90;99.90;;;;;;4372108;32;20213;-66
2021/07/15 10:40:27;;;;;;;18.90;11.70;;;18.80;99.90;;;;;;4372385;32;20187;-66
2021/07/15 10:42:55;;;;;;;16.03;10.07;;;18.60;99.90;;;;;;4374645;32;20160;-65
2021/07/15 10:45:22;;;;;;;17.17;10.47;;;18.60;99.90;;;;;;4374251;32;20622;-65
2021/07/15 10:47:55;;;;;;;15.33;10.43;;;18.50;99.90;;;;;;4374370;32;20632;-65
2021/07/15 10:50:22;;;;;;;24.57;11.33;;;18.40;99.90;;;;;;4375145;32;20171;-67
2021/07/15 10:52:50;;;;;;;20.23;11.70;;;18.30;99.90;;;;;;4377265;32;20262;-66
2021/07/15 10:55:18;;;;;;;20.33;12.00;;;18.20;99.90;;;;;;4376842;32;20183;-65
2021/07/15 10:57:51;;;;;;;18.23;12.90;;;18.20;99.90;;;;;;4375302;32;20176;-65
2021/07/15 11:00:23;;;;;;;20.90;12.03;;;18.20;99.90;;;;;;4372208;32;20235;-66
2021/07/15 11:03:14;;;;;;;18.43;12.10;;;18.30;99.90;;;;;;4380917;32;20624;-66
2021/07/15 11:05:53;;;;;;;17.40;11.83;;;18.30;99.90;;;;;;4369584;32;20524;-66
2021/07/15 11:09:00;;;;;;;22.67;12.77;;;18.30;99.90;;;;;;4372998;32;20179;-66
2021/07/15 11:11:48;;;;;;;16.20;12.57;;;18.20;99.90;;;;;;4375313;32;20228;-66
2021/07/15 11:14:36;;;;;;;19.77;12.27;;;18.30;99.90;;;;;;4344948;33;20187;-66
2021/07/15 11:17:15;;;;;;;27.57;14.47;;;18.30;99.90;;;;;;4342658;33;20247;-66
2021/07/15 11:20:01;;;;;;;20.53;14.20;;;18.30;99.90;;;;;;4340539;33;20231;-65
2021/07/15 11:22:39;;;;;;;19.60;13.63;;;18.40;99.90;;;;;;4334991;33;20187;-66
2021/07/15 11:25:09;;;;;;;24.70;15.00;;;18.40;99.90;;;;;;4333675;33;20173;-66
2021/07/15 11:27:50;;;;;;;25.87;14.23;;;18.50;99.90;;;;;;4340502;33;20207;-67
2021/07/15 11:31:01;;;;;;;28.07;14.90;;;18.50;99.90;;;;;;4334346;33;20264;-66
2021/07/15 11:33:39;;;;;;;24.10;13.43;;;18.50;99.90;;;;;;4331526;33;20226;-67
2021/07/15 11:36:27;;;;;;;28.97;13.83;;;18.60;99.90;;;;;;4323554;33;20161;-65
2021/07/15 11:38:58;;;;;;;22.30;13.90;;;18.40;99.90;;;;;;4332849;33;20192;-66
2021/07/15 11:41:50;;;;;;;27.87;14.63;;;18.50;99.90;;;;;;4325916;32;20274;-64
2021/07/15 11:44:18;;;;;;;25.77;14.10;;;18.50;99.90;;;;;;4327331;32;20263;-63
2021/07/15 11:46:56;;;;;;;28.13;14.27;;;18.50;99.90;;;;;;4326461;33;20231;-64
2021/07/15 11:49:25;;;;;;;24.57;12.00;;;18.50;99.90;;;;;;4330256;33;20191;-65
2021/07/15 11:52:01;;;;;;;23.20;15.43;;;18.60;99.90;;;;;;4357179;32;20479;-63
2021/07/15 11:54:43;;;;;;;26.70;14.23;;;18.60;99.90;;;;;;4372648;32;20181;-64
2021/07/15 11:57:37;;;;;;;28.10;15.60;;;18.60;99.90;;;;;;4369291;32;20475;-64
2021/07/15 12:00:22;;;;;;;29.47;15.20;;;18.60;99.90;;;;;;4341619;33;20179;-64
2021/07/15 12:02:57;;;;;;;25.73;14.37;;;18.60;99.90;;;;;;4339815;33;20165;-65
2021/07/15 12:05:28;;;;;;;28.50;16.47;;;18.70;99.90;;;;;;4333095;33;20180;-65
2021/07/15 12:08:20;;;;;;;27.40;15.57;;;18.50;99.90;;;;;;4342662;33;20165;-65
2021/07/15 12:10:49;;;;;;;24.13;16.27;;;18.60;99.90;;;;;;4313006;33;20158;-65
2021/07/15 12:13:17;;;;;;;33.20;16.50;;;18.70;99.90;;;;;;4309645;33;20173;-65
2021/07/15 12:15:45;;;;;;;31.40;14.63;;;18.70;99.90;;;;;;4314827;33;20173;-64
2021/07/15 12:18:16;;;;;;;28.87;13.77;;;18.80;99.90;;;;;;4315442;33;20602;-64
2021/07/15 12:20:45;;;;;;;25.07;14.47;;;18.90;99.90;;;;;;4314535;33;20181;-64
2021/07/15 12:23:14;;;;;;;27.40;13.13;;;18.90;99.90;;;;;;4312833;33;20630;-64
2021/07/15 12:25:43;;;;;;;30.37;14.60;;;18.70;99.90;;;;;;4300980;33;20629;-65
2021/07/15 12:28:11;;;;;;;17.87;12.27;;;19.00;99.90;;;;;;4311609;33;20579;-65
2021/07/15 12:30:45;;;;;;;25.60;13.47;;;19.10;99.90;;;;;;4314066;33;20170;-64
2021/07/15 12:33:15;;;;;;;20.67;11.80;;;19.20;99.90;;;;;;4315447;33;20166;-64
2021/07/15 12:35:44;;;;;;;20.30;11.83;;;19.20;99.90;;;;;;4318498;33;20170;-65
2021/07/15 12:38:19;;;;;;;28.13;14.70;;;19.10;99.90;;;;;;4345774;33;20581;-64
2021/07/15 12:40:48;;;;;;;21.83;13.33;;;19.00;99.90;;;;;;4343467;33;20173;-64
2021/07/15 12:43:19;;;;;;;23.57;12.17;;;19.00;99.90;;;;;;4352224;32;20165;-64